Mc Donald, Ohio
Current Conditions -  °F | °C
As of 7:51 AM on Tuesday 21 Oct 2014 (Local Time) from KYNG Reporting Station
Light Rain Light Rain  
Wind Chill: 50°   Ceiling: 600
Heat Index: 50°   Visibility: 2mi
Dew Point: 48°   Wind: 9mph
Humidity: 93%   Direction: 340°NNW
Pressure: 29.85"   Gusts: NA
Location:  41.1587°N, 80.7233°W
Report Text: KYNG 211151Z 34008KT 2SM -RA BR BKN006 BKN011 OVC046 10/09 A2985 RMK AO2 SLP110 P0014 60047 70074 T01000089 10106 20100 53009
Loading
Personal Weather Stations






























Interactive Weather Map
Tropical Storm Tracking
New forecast layout! Learn more

10-Day Weather Forecast

Advertisements
Track Severe Weather on mobile